createdAt,value
2023-04-28T00:01:00.645Z,26.5
2023-04-28T00:03:06.298Z,26.47
2023-04-28T00:05:11.883Z,26.46
2023-04-28T00:07:16.981Z,26.42
2023-04-28T00:09:21.992Z,26.52
2023-04-28T00:11:27.112Z,26.45
2023-04-28T00:13:32.162Z,26.42
2023-04-28T00:15:37.316Z,26.42
2023-04-28T00:17:42.541Z,26.44
2023-04-28T00:19:47.672Z,26.3
2023-04-28T00:21:52.713Z,26.16
2023-04-28T00:23:58.070Z,26.26
2023-04-28T00:26:03.163Z,26.25
2023-04-28T00:28:08.306Z,26.18
2023-04-28T00:30:13.424Z,26.19
2023-04-28T00:32:18.472Z,26.27
2023-04-28T00:34:23.521Z,25.93
2023-04-28T00:36:28.569Z,26.08
2023-04-28T00:38:33.648Z,25.9
2023-04-28T00:40:38.687Z,26.13
2023-04-28T00:42:43.696Z,26.06
2023-04-28T00:44:48.813Z,25.96
2023-04-28T00:46:53.958Z,26.01
2023-04-28T00:48:58.993Z,26.03
2023-04-28T00:51:04.063Z,25.93
2023-04-28T00:53:09.108Z,25.85
2023-04-28T00:55:14.191Z,25.82
2023-04-28T00:57:19.224Z,25.72
2023-04-28T00:59:24.246Z,25.67
2023-04-28T01:01:29.432Z,25.55
2023-04-28T01:03:34.938Z,25.79
2023-04-28T01:05:40.167Z,25.83
2023-04-28T01:07:45.189Z,25.77
2023-04-28T01:09:50.410Z,25.86
2023-04-28T01:11:55.581Z,25.92
2023-04-28T01:14:00.739Z,25.79
2023-04-28T01:16:05.883Z,25.69
2023-04-28T01:18:11.132Z,25.77
2023-04-28T01:20:16.242Z,25.73
2023-04-28T01:22:21.249Z,25.84
2023-04-28T01:24:26.363Z,25.61
2023-04-28T01:26:31.428Z,25.69
2023-04-28T01:28:36.435Z,25.74
2023-04-28T01:30:41.496Z,25.72
2023-04-28T01:32:46.734Z,26.06
2023-04-28T01:34:51.839Z,26.03
2023-04-28T01:36:56.943Z,25.98
2023-04-28T01:39:02.180Z,26.16
2023-04-28T01:41:07.425Z,26.01
2023-04-28T01:43:12.434Z,25.88
2023-04-28T01:45:17.526Z,25.81
2023-04-28T01:47:22.676Z,25.82
2023-04-28T01:49:27.894Z,25.69
2023-04-28T01:51:32.917Z,25.69
2023-04-28T01:53:37.941Z,25.82
2023-04-28T01:55:42.961Z,25.76
2023-04-28T01:57:48.027Z,25.76
2023-04-28T01:59:53.091Z,25.86
2023-04-28T02:01:58.532Z,25.77
2023-04-28T02:04:04.289Z,25.85
2023-04-28T02:06:09.373Z,25.78
2023-04-28T02:08:14.397Z,25.83
2023-04-28T02:10:19.433Z,25.83
2023-04-28T02:12:26.147Z,25.99
2023-04-28T02:14:31.204Z,26.07
2023-04-28T02:16:36.669Z,26.11
2023-04-28T02:18:41.706Z,26.24
2023-04-28T02:20:46.744Z,26.29
2023-04-28T02:22:51.863Z,26.33
2023-04-28T02:24:56.976Z,26.42
2023-04-28T02:27:02.047Z,26.42
2023-04-28T02:29:07.056Z,26.32
2023-04-28T02:31:12.278Z,26.32
2023-04-28T02:33:17.330Z,26.37
2023-04-28T02:35:22.434Z,26.31
2023-04-28T02:37:27.591Z,26.38
2023-04-28T02:39:32.718Z,26.35
2023-04-28T02:41:37.763Z,26.33
2023-04-28T02:43:42.787Z,26.15
2023-04-28T02:45:47.915Z,26.17
2023-04-28T02:47:53.117Z,26.4
2023-04-28T02:49:58.162Z,26.33
2023-04-28T02:52:03.201Z,26.33
2023-04-28T02:54:08.233Z,26.43
2023-04-28T02:56:13.282Z,26.38
2023-04-28T02:58:18.606Z,26.43
2023-04-28T03:00:23.722Z,26.41
2023-04-28T03:02:29.144Z,26.48
2023-04-28T03:06:00.267Z,26.49
2023-04-28T03:08:05.385Z,26.37
2023-04-28T03:10:10.479Z,26.43
2023-04-28T03:12:15.601Z,26.37
2023-04-28T03:14:20.818Z,26.4
2023-04-28T03:16:26.049Z,26.35
2023-04-28T03:18:31.157Z,26.62
2023-04-28T03:20:36.252Z,26.61
2023-04-28T03:22:41.320Z,26.48
2023-04-28T03:24:46.374Z,26.55
2023-04-28T03:26:51.419Z,26.46
2023-04-28T03:28:56.479Z,26.39
2023-04-28T03:31:01.521Z,26.39
2023-04-28T03:33:06.806Z,26.52
2023-04-28T03:35:11.956Z,26.61
2023-04-28T03:37:17.035Z,26.58
2023-04-28T03:39:22.045Z,26.52
2023-04-28T03:41:27.102Z,26.76
2023-04-28T03:43:32.176Z,26.93
2023-04-28T03:45:37.308Z,26.85
2023-04-28T03:47:42.452Z,26.83
2023-04-28T03:49:47.463Z,26.77
2023-04-28T03:51:52.646Z,26.82
2023-04-28T03:53:57.676Z,26.76
2023-04-28T03:56:02.806Z,26.89
2023-04-28T03:58:07.903Z,26.79
2023-04-28T04:00:13.019Z,26.91
2023-04-28T04:02:18.304Z,26.84
2023-04-28T04:04:25.514Z,26.85
2023-04-28T04:06:31.038Z,26.74
2023-04-28T04:08:36.068Z,26.74
2023-04-28T04:10:41.165Z,26.73
2023-04-28T04:12:46.194Z,26.7
2023-04-28T04:14:51.247Z,26.66
2023-04-28T04:16:56.305Z,26.71
2023-04-28T04:19:01.332Z,26.64
2023-04-28T04:21:06.353Z,26.74
2023-04-28T04:23:11.408Z,26.71
2023-04-28T04:25:16.599Z,26.69
2023-04-28T04:27:21.606Z,26.8
2023-04-28T04:29:26.743Z,26.88
2023-04-28T04:31:31.945Z,26.74
2023-04-28T04:33:37.105Z,26.78
2023-04-28T04:35:42.171Z,26.95
2023-04-28T04:37:47.218Z,26.97
2023-04-28T04:39:52.303Z,26.82
2023-04-28T04:41:57.457Z,26.81
2023-04-28T04:44:02.614Z,26.91
2023-04-28T04:46:07.878Z,26.78
2023-04-28T04:48:13.100Z,26.87
2023-04-28T04:50:18.304Z,26.99
2023-04-28T04:52:23.320Z,26.95
2023-04-28T04:54:28.414Z,26.76
2023-04-28T04:56:33.464Z,26.87
2023-04-28T04:58:38.519Z,26.93
2023-04-28T05:00:43.508Z,26.72
2023-04-28T05:02:49.143Z,26.84
2023-04-28T05:05:05.025Z,26.84
2023-04-28T05:07:13.250Z,26.76
2023-04-28T05:09:18.392Z,26.86
2023-04-28T05:11:23.422Z,26.64
2023-04-28T05:13:28.444Z,27.51
2023-04-28T05:15:33.548Z,27.78
2023-04-28T05:17:38.716Z,27.94
2023-04-28T05:19:43.762Z,28.04
2023-04-28T05:21:48.923Z,28.31
2023-04-28T05:23:53.969Z,28.27
2023-04-28T05:25:59.037Z,28.47
2023-04-28T05:28:04.069Z,28.56
2023-04-28T05:30:09.167Z,28.52
2023-04-28T05:32:14.816Z,28.76
2023-04-28T05:34:20.714Z,29.31
2023-04-28T05:36:25.834Z,29
2023-04-28T05:38:30.887Z,29.47
2023-04-28T05:40:35.967Z,29.41
2023-04-28T05:42:41.134Z,29.38
2023-04-28T05:44:46.172Z,29.14
2023-04-28T05:46:51.613Z,29.54
2023-04-28T05:48:56.726Z,29.62
2023-04-28T05:51:01.781Z,29.56
2023-04-28T05:53:06.844Z,29.91
2023-04-28T05:55:11.960Z,29.84
2023-04-28T05:57:16.994Z,30.3
2023-04-28T05:59:22.145Z,30.63
2023-04-28T06:01:27.177Z,31.23
2023-04-28T06:03:33.002Z,31.2
2023-04-28T06:05:39.193Z,31.38
2023-04-28T06:07:44.461Z,31.69
2023-04-28T06:09:49.485Z,31.67
2023-04-28T06:11:54.540Z,31.79
2023-04-28T06:13:59.571Z,31.69
2023-04-28T06:16:04.782Z,31.82
2023-04-28T06:18:10.278Z,31.64
2023-04-28T06:20:15.412Z,31.86
2023-04-28T06:22:20.450Z,31.9
2023-04-28T06:24:25.521Z,31.99
2023-04-28T06:26:30.604Z,31.78
2023-04-28T06:28:35.645Z,31.6
2023-04-28T06:30:40.742Z,31.83
2023-04-28T06:32:45.940Z,32.17
2023-04-28T06:34:51.088Z,31.83
2023-04-28T06:36:56.154Z,31.76
2023-04-28T06:39:01.411Z,31.77
2023-04-28T06:41:06.557Z,31.47
2023-04-28T06:43:11.534Z,32.08
2023-04-28T06:45:16.492Z,32.07
2023-04-28T06:47:21.983Z,31.84
2023-04-28T06:49:26.972Z,31.6
2023-04-28T06:51:32.118Z,31.39
2023-04-28T06:53:37.212Z,31.23
2023-04-28T06:55:42.254Z,31.15
2023-04-28T06:57:47.414Z,31.07
2023-04-28T06:59:52.457Z,31
2023-04-28T07:01:57.693Z,30.98
2023-04-28T07:04:03.312Z,30.88
2023-04-28T07:06:08.546Z,30.88
2023-04-28T07:08:14.607Z,30.88
2023-04-28T07:10:19.894Z,30.86
2023-04-28T07:12:24.959Z,30.82
2023-04-28T07:14:30.023Z,30.77
2023-04-28T07:16:35.193Z,30.76
2023-04-28T07:18:40.286Z,30.71
2023-04-28T07:20:45.363Z,30.55
2023-04-28T07:22:50.451Z,30.43
2023-04-28T07:24:55.968Z,30.66
2023-04-28T07:27:01.016Z,30.42
2023-04-28T07:29:06.117Z,30.38
2023-04-28T07:31:11.187Z,30.46
2023-04-28T07:33:16.571Z,30.48
2023-04-28T07:35:21.737Z,30.44
2023-04-28T07:37:26.785Z,30.22
2023-04-28T07:39:31.822Z,30.34
2023-04-28T07:41:37.648Z,30.03
2023-04-28T07:43:42.678Z,30.26
2023-04-28T07:45:48.046Z,30.28
2023-04-28T07:47:53.351Z,30.13
2023-04-28T07:49:58.446Z,29.8
2023-04-28T07:52:03.531Z,29.8
2023-04-28T07:54:08.641Z,29.73
2023-04-28T07:56:13.666Z,29.96
2023-04-28T07:58:18.705Z,30.31
2023-04-28T08:00:23.948Z,30.21
2023-04-28T08:02:29.564Z,30.16
2023-04-28T08:04:37.192Z,30.05
2023-04-28T08:06:42.454Z,30.02
2023-04-28T08:08:47.667Z,29.92
2023-04-28T08:10:52.737Z,29.92
2023-04-28T08:12:57.835Z,29.85
2023-04-28T08:15:02.944Z,29.83
2023-04-28T08:17:08.020Z,29.84
2023-04-28T08:19:13.082Z,29.81
2023-04-28T08:21:18.115Z,29.76
2023-04-28T08:23:23.171Z,29.77
2023-04-28T08:25:28.200Z,29.76
2023-04-28T08:27:33.442Z,29.76
2023-04-28T08:29:38.490Z,29.75
2023-04-28T08:31:44.085Z,29.7
2023-04-28T08:33:49.512Z,29.69
2023-04-28T08:35:54.590Z,29.7
2023-04-28T08:37:59.814Z,29.69
2023-04-28T08:40:04.877Z,29.67
2023-04-28T08:42:09.959Z,29.64
2023-04-28T08:44:15.308Z,29.69
2023-04-28T08:46:20.848Z,29.67
2023-04-28T08:48:25.971Z,29.67
2023-04-28T08:50:31.029Z,29.61
2023-04-28T08:52:36.047Z,29.56
2023-04-28T08:54:41.125Z,29.59
2023-04-28T08:56:46.207Z,29.56
2023-04-28T08:58:51.300Z,29.59
2023-04-28T09:00:56.472Z,29.56
2023-04-28T09:03:02.188Z,29.54
2023-04-28T09:05:08.590Z,29.51
2023-04-28T09:07:13.953Z,29.52
2023-04-28T09:09:19.070Z,29.49
2023-04-28T09:11:24.177Z,29.51
2023-04-28T09:13:29.261Z,29.46
2023-04-28T09:15:36.594Z,29.48
2023-04-28T09:17:41.798Z,29.49
2023-04-28T09:19:46.884Z,29.5
2023-04-28T09:21:52.117Z,29.56
2023-04-28T09:23:57.230Z,29.38
2023-04-28T09:26:02.398Z,29.52
2023-04-28T09:28:07.461Z,29.34
2023-04-28T09:30:12.496Z,29.69
2023-04-28T09:32:18.437Z,29.11
2023-04-28T09:34:23.618Z,28.78
2023-04-28T09:36:28.652Z,28.67
2023-04-28T09:38:33.786Z,28.8
2023-04-28T09:40:38.922Z,29.16
2023-04-28T09:42:44.229Z,29.32
2023-04-28T09:44:49.537Z,29.53
2023-04-28T09:46:54.557Z,30
2023-04-28T09:48:59.600Z,30.25
2023-04-28T09:51:04.797Z,31.09
2023-04-28T09:53:09.830Z,31.5
2023-04-28T09:55:14.920Z,32.26
2023-04-28T09:57:19.954Z,32.89
2023-04-28T09:59:25.610Z,32.75
2023-04-28T10:01:30.794Z,32.53
2023-04-28T10:03:36.410Z,32.68
2023-04-28T10:05:41.932Z,33.14
2023-04-28T10:07:47.097Z,33.24
2023-04-28T10:09:52.191Z,32.5
2023-04-28T10:11:57.287Z,32.95
2023-04-28T10:14:02.334Z,32.56
2023-04-28T10:16:07.495Z,32.57
2023-04-28T10:18:12.828Z,32.4
2023-04-28T10:20:17.944Z,31.96
2023-04-28T10:22:22.986Z,32.25
2023-04-28T10:24:28.092Z,32.29
2023-04-28T10:26:33.330Z,31.67
2023-04-28T10:28:38.461Z,31.98
2023-04-28T10:30:43.589Z,32.27
2023-04-28T10:32:48.783Z,32.27
2023-04-28T10:34:53.897Z,31.71
2023-04-28T10:36:58.945Z,31.14
2023-04-28T10:39:03.980Z,30.77
2023-04-28T10:41:09.043Z,30.79
2023-04-28T10:43:14.100Z,30.6
2023-04-28T10:45:19.151Z,30.31
2023-04-28T10:47:24.389Z,30.39
2023-04-28T10:49:29.554Z,30.63
2023-04-28T10:51:34.724Z,30.36
2023-04-28T10:53:39.874Z,30.17
2023-04-28T10:55:45.006Z,30.42
2023-04-28T10:57:50.171Z,30.06
2023-04-28T10:59:55.205Z,30.08
2023-04-28T11:02:00.382Z,30.46
2023-04-28T11:04:06.632Z,29.92
2023-04-28T11:06:11.789Z,30
2023-04-28T11:08:16.850Z,29.76
2023-04-28T11:10:21.886Z,29.98
2023-04-28T11:12:26.966Z,30.16
2023-04-28T11:14:32.060Z,29.93
2023-04-28T11:16:37.293Z,30.17
2023-04-28T11:18:42.397Z,30.29
2023-04-28T11:20:47.425Z,30.25
2023-04-28T11:22:52.512Z,30.18
2023-04-28T11:24:57.699Z,30.12
2023-04-28T11:27:02.829Z,30.25
2023-04-28T11:29:07.869Z,30.48
2023-04-28T11:31:12.902Z,30.24
2023-04-28T11:33:18.070Z,30.41
2023-04-28T11:35:23.117Z,30.73
2023-04-28T11:37:28.586Z,30.57
2023-04-28T11:39:33.707Z,30.84
2023-04-28T11:41:38.872Z,30.75
2023-04-28T11:43:49.935Z,30.45
2023-04-28T11:45:55.073Z,30.25
2023-04-28T11:48:00.415Z,30.37
2023-04-28T11:50:05.971Z,30.45
2023-04-28T11:52:11.122Z,30.39
2023-04-28T11:54:16.329Z,30.13
2023-04-28T11:56:21.626Z,30.24
2023-04-28T11:58:26.861Z,30.32
2023-04-28T12:00:31.934Z,30.44
2023-04-28T12:02:37.291Z,30.21
2023-04-28T12:04:42.510Z,30.14
2023-04-28T12:06:47.553Z,30.11
2023-04-28T12:08:52.738Z,30.06
2023-04-28T12:10:57.752Z,29.86
2023-04-28T12:13:02.792Z,30.19
2023-04-28T12:15:07.842Z,29.64
2023-04-28T12:17:13.094Z,29.65
2023-04-28T12:19:18.133Z,29.76
2023-04-28T12:21:23.195Z,29.64
2023-04-28T12:23:28.229Z,29.47
2023-04-28T12:25:33.406Z,29.62
2023-04-28T12:27:40.980Z,29.33
2023-04-28T12:29:47.320Z,29.69
2023-04-28T12:31:52.676Z,29.38
2023-04-28T12:33:57.900Z,30.42
2023-04-28T12:36:02.972Z,30.6
2023-04-28T12:38:07.971Z,30.57
2023-04-28T12:40:13.116Z,30.64
2023-04-28T12:42:18.218Z,31.27
2023-04-28T12:44:23.305Z,30.97
2023-04-28T12:46:28.498Z,30.9
2023-04-28T12:48:33.559Z,30.99
2023-04-28T12:50:38.676Z,31.2
2023-04-28T12:52:43.827Z,31.23
2023-04-28T12:54:48.974Z,26.67
2023-04-28T12:56:54.022Z,26.06
2023-04-28T12:58:59.128Z,26.66
2023-04-28T13:01:04.294Z,27.47
2023-04-28T13:03:10.201Z,27.16
2023-04-28T13:05:15.445Z,27.13
2023-04-28T13:07:20.571Z,27.29
2023-04-28T13:09:25.721Z,27.75
2023-04-28T13:11:30.753Z,27.78
2023-04-28T13:13:35.802Z,27.16
2023-04-28T13:15:41.473Z,27.22
2023-04-28T13:17:46.697Z,27.28
2023-04-28T13:19:51.925Z,26.88
2023-04-28T13:21:57.340Z,27.17
2023-04-28T13:24:02.372Z,27.8
2023-04-28T13:26:07.441Z,26.87
2023-04-28T13:28:12.575Z,26.64
2023-04-28T13:30:17.692Z,26.04
2023-04-28T13:32:22.755Z,25.32
2023-04-28T13:34:28.056Z,26.14
2023-04-28T13:36:33.164Z,26.11
2023-04-28T13:38:38.239Z,26.07
2023-04-28T13:40:43.401Z,26.47
2023-04-28T13:42:48.448Z,25.43
2023-04-28T13:44:53.490Z,25.59
2023-04-28T13:46:58.542Z,25.64
2023-04-28T13:49:03.678Z,25.55
2023-04-28T13:51:08.743Z,25.86
2023-04-28T13:53:13.852Z,26.41
2023-04-28T13:55:19.059Z,25.74
2023-04-28T13:57:24.091Z,25.88
2023-04-28T13:59:29.154Z,26.06
2023-04-28T14:01:34.398Z,25.93
2023-04-28T14:03:40.053Z,25.86
2023-04-28T14:05:52.189Z,25.93
2023-04-28T14:07:57.364Z,25.65
2023-04-28T14:10:02.601Z,25.6
2023-04-28T14:12:07.736Z,25.9
2023-04-28T14:14:12.805Z,26.03
2023-04-28T14:16:18.082Z,26.48
2023-04-28T14:18:23.189Z,26.47
2023-04-28T14:20:30.466Z,26.72
2023-04-28T14:22:35.499Z,26.38
2023-04-28T14:24:40.595Z,26.51
2023-04-28T14:26:45.704Z,25.87
2023-04-28T14:28:50.789Z,25.75
2023-04-28T14:30:55.996Z,25.67
2023-04-28T14:33:01.398Z,26.48
2023-04-28T14:35:06.590Z,26.78
2023-04-28T14:37:11.874Z,26.84
2023-04-28T14:39:17.088Z,26.96
2023-04-28T14:41:22.200Z,26.79
2023-04-28T14:43:27.306Z,26.85
2023-04-28T14:45:32.495Z,27.31
2023-04-28T14:47:37.625Z,27.37
2023-04-28T14:49:42.720Z,27.4
2023-04-28T14:51:47.827Z,26.95
2023-04-28T14:53:52.918Z,26.68
2023-04-28T14:56:19.876Z,26.3
2023-04-28T14:58:25.080Z,26.58
2023-04-28T15:00:30.177Z,26.58
2023-04-28T15:02:35.579Z,26.89
2023-04-28T15:04:41.001Z,27.04
2023-04-28T15:06:46.160Z,27.16
2023-04-28T15:08:51.260Z,27.16
2023-04-28T15:10:56.334Z,27.08
2023-04-28T15:13:01.551Z,27.23
2023-04-28T15:15:06.562Z,26.96
2023-04-28T15:17:11.486Z,26.84
2023-04-28T15:19:16.429Z,26.89
2023-04-28T15:21:21.496Z,26.88
2023-04-28T15:23:26.610Z,26.89
2023-04-28T15:25:31.660Z,26.92
2023-04-28T15:27:36.841Z,27.08
2023-04-28T15:29:42.117Z,27.17
2023-04-28T15:31:47.206Z,26.56
2023-04-28T15:33:52.173Z,26.09
2023-04-28T15:35:57.204Z,25.98
2023-04-28T15:38:02.219Z,26.54
2023-04-28T15:40:07.333Z,25.98
2023-04-28T15:42:12.376Z,24.9
2023-04-28T15:44:17.395Z,24.87
2023-04-28T15:46:22.709Z,25.36
2023-04-28T15:48:27.836Z,24.68
2023-04-28T15:50:32.842Z,24.4
2023-04-28T15:52:37.975Z,23.85
2023-04-28T15:54:42.993Z,23.98
2023-04-28T15:56:48.098Z,24.61
2023-04-28T15:58:53.220Z,25
2023-04-28T16:00:58.680Z,24.63
2023-04-28T16:03:04.350Z,24.24
2023-04-28T16:05:09.507Z,24.44
2023-04-28T16:07:14.586Z,24.28
2023-04-28T16:09:19.601Z,24.61
2023-04-28T16:11:24.662Z,24.38
2023-04-28T16:13:30.096Z,24.73
2023-04-28T16:15:35.051Z,24.81
2023-04-28T16:17:40.309Z,24.97
2023-04-28T16:19:45.427Z,25
2023-04-28T16:21:50.468Z,25.18
2023-04-28T16:23:55.511Z,25.19
2023-04-28T16:26:00.541Z,25.31
2023-04-28T16:28:05.707Z,25.71
2023-04-28T16:30:10.788Z,25.93
2023-04-28T16:32:16.304Z,26.19
2023-04-28T16:34:21.408Z,26.11
2023-04-28T16:36:26.504Z,25.57
2023-04-28T16:38:31.552Z,24.84
2023-04-28T16:40:36.671Z,24.97
2023-04-28T16:42:41.971Z,25.22
2023-04-28T16:44:47.109Z,24.99
2023-04-28T16:46:52.115Z,25.11
2023-04-28T16:48:57.162Z,24.54
2023-04-28T16:51:02.148Z,25.48
2023-04-28T16:53:07.197Z,26.02
2023-04-28T16:55:12.352Z,26.07
2023-04-28T16:57:17.390Z,26.37
2023-04-28T16:59:22.478Z,26.27
2023-04-28T17:01:28.213Z,26.24
2023-04-28T17:03:34.764Z,26.47
2023-04-28T17:05:39.924Z,26.51
2023-04-28T17:07:45.061Z,26.68
2023-04-28T17:09:50.707Z,26.56
2023-04-28T17:11:55.808Z,26.94
2023-04-28T17:14:00.814Z,27
2023-04-28T17:16:06.026Z,27.06
2023-04-28T17:18:11.209Z,26.93
2023-04-28T17:20:16.233Z,27.07
2023-04-28T17:22:21.278Z,27.08
2023-04-28T17:24:26.319Z,27.14
2023-04-28T17:26:31.308Z,26.35
2023-04-28T17:28:36.478Z,26.85
2023-04-28T17:30:47.260Z,27.01
2023-04-28T17:32:52.822Z,26.85
2023-04-28T17:34:57.880Z,27.36
2023-04-28T17:37:02.880Z,27.41
2023-04-28T17:39:07.954Z,27.38
2023-04-28T17:41:13.018Z,27.03
2023-04-28T17:43:18.070Z,27.66
2023-04-28T17:45:23.136Z,27.7
2023-04-28T17:47:28.220Z,27.62
2023-04-28T17:49:33.357Z,27.56
2023-04-28T17:51:38.414Z,27.56
2023-04-28T17:53:43.694Z,27.71
2023-04-28T17:55:48.726Z,27.41
2023-04-28T17:57:53.813Z,27.41
2023-04-28T17:59:58.907Z,27.62
2023-04-28T18:02:04.157Z,27.66
2023-04-28T18:04:09.406Z,27.58
2023-04-28T18:06:15.390Z,27.48
2023-04-28T18:08:20.414Z,27.94
2023-04-28T18:10:25.471Z,27.63
2023-04-28T18:12:30.484Z,28.17
2023-04-28T18:14:35.542Z,27.73
2023-04-28T18:16:40.789Z,27.95
2023-04-28T18:18:45.885Z,27.81
2023-04-28T18:20:51.011Z,28.05
2023-04-28T18:22:56.041Z,28.06
2023-04-28T18:25:01.134Z,28.06
2023-04-28T18:27:06.113Z,27.92
2023-04-28T18:29:11.184Z,27.76
2023-04-28T18:31:16.379Z,27.62
2023-04-28T18:33:24.995Z,27.51
2023-04-28T18:35:30.036Z,27.59
2023-04-28T18:37:35.054Z,27.93
2023-04-28T18:39:40.054Z,27.95
2023-04-28T18:41:45.264Z,28.32
2023-04-28T18:43:50.291Z,28.59
2023-04-28T18:45:55.346Z,28.27
2023-04-28T18:48:01.692Z,28.19
2023-04-28T18:50:07.174Z,28.8
2023-04-28T18:52:12.228Z,28.36
2023-04-28T18:54:17.243Z,28.5
2023-04-28T18:56:22.259Z,28.3
2023-04-28T18:58:27.300Z,28.31
2023-04-28T19:00:32.275Z,29.21
2023-04-28T19:02:37.890Z,29.21
2023-04-28T19:04:43.582Z,29.47
2023-04-28T19:06:48.599Z,29.94
2023-04-28T19:08:53.639Z,29.24
2023-04-28T19:10:58.750Z,28.96
2023-04-28T19:13:03.773Z,29.42
2023-04-28T19:15:08.832Z,29.51
2023-04-28T19:17:14.189Z,29.98
2023-04-28T19:19:19.245Z,29.83
2023-04-28T19:21:24.325Z,29.51
2023-04-28T19:23:29.336Z,29.45
2023-04-28T19:25:34.380Z,29.19
2023-04-28T19:27:39.546Z,29.31
2023-04-28T19:29:44.556Z,29.42
2023-04-28T19:31:49.550Z,28.75
2023-04-28T19:33:54.678Z,29.43
2023-04-28T19:35:59.806Z,28.82
2023-04-28T19:38:04.825Z,29.74
2023-04-28T19:40:09.993Z,29.18
2023-04-28T19:42:15.004Z,29.14
2023-04-28T19:44:20.143Z,28.89
2023-04-28T19:46:25.351Z,28.77
2023-04-28T19:48:30.431Z,28.88
2023-04-28T19:50:35.521Z,28.82
2023-04-28T19:52:40.509Z,28.74
2023-04-28T19:54:45.547Z,28.79
2023-04-28T19:56:50.564Z,28.76
2023-04-28T19:58:55.577Z,28.74
2023-04-28T20:01:00.582Z,28.4
2023-04-28T20:03:06.102Z,28.52
2023-04-28T20:05:11.194Z,28.45
2023-04-28T20:07:16.300Z,28.67
2023-04-28T20:09:21.462Z,29.01
2023-04-28T20:11:26.477Z,29.03
2023-04-28T20:13:31.577Z,28.63
2023-04-28T20:15:36.787Z,28.4
2023-04-28T20:17:42.138Z,28.42
2023-04-28T20:19:47.235Z,28.58
2023-04-28T20:21:52.240Z,28.92
2023-04-28T20:23:57.333Z,28.62
2023-04-28T20:26:02.375Z,28.44
2023-04-28T20:28:07.352Z,28.53
2023-04-28T20:30:12.369Z,28.46
2023-04-28T20:32:17.344Z,28.65
2023-04-28T20:34:22.346Z,28.72
2023-04-28T20:36:27.430Z,28.75
2023-04-28T20:38:32.565Z,28.83
2023-04-28T20:40:37.593Z,28.84
2023-04-28T20:42:42.673Z,28.95
2023-04-28T20:44:47.903Z,29.49
2023-04-28T20:46:53.074Z,29.09
2023-04-28T20:48:58.066Z,29.29
2023-04-28T20:51:03.082Z,29.06
2023-04-28T20:53:08.090Z,29.25
2023-04-28T20:55:13.137Z,29.2
2023-04-28T20:57:18.137Z,28.83
2023-04-28T20:59:23.154Z,29.06
2023-04-28T21:01:28.401Z,28.96
2023-04-28T21:03:33.744Z,28.82
2023-04-28T21:05:38.858Z,28.93
2023-04-28T21:07:43.864Z,28.84
2023-04-28T21:09:48.952Z,29.08
2023-04-28T21:11:54.104Z,28.88
2023-04-28T21:13:59.076Z,28.88
2023-04-28T21:16:04.306Z,28.89
2023-04-28T21:18:09.778Z,28.94
2023-04-28T21:20:15.013Z,29.01
2023-04-28T21:22:20.040Z,29.11
2023-04-28T21:24:25.020Z,29.17
2023-04-28T21:26:30.171Z,29.19
2023-04-28T21:28:35.160Z,29.33
2023-04-28T21:30:40.217Z,29.24
2023-04-28T21:32:45.292Z,29.26
2023-04-28T21:34:50.308Z,29.33
2023-04-28T21:36:55.385Z,29.46
2023-04-28T21:39:00.377Z,29.37
2023-04-28T21:41:05.468Z,29.6
2023-04-28T21:43:10.471Z,29.49
2023-04-28T21:45:15.497Z,29.62
2023-04-28T21:47:20.663Z,29.66
2023-04-28T21:49:25.718Z,29.67
2023-04-28T21:51:30.761Z,29.66
2023-04-28T21:53:35.929Z,29.83
2023-04-28T21:55:40.982Z,29.75
2023-04-28T21:57:46.009Z,29.8
2023-04-28T21:59:51.874Z,29.77
2023-04-28T22:01:57.024Z,29.95
2023-04-28T22:04:02.890Z,29.92
2023-04-28T22:06:08.100Z,29.84
2023-04-28T22:08:13.242Z,29.88
2023-04-28T22:10:18.243Z,29.95
2023-04-28T22:12:23.248Z,29.97
2023-04-28T22:14:43.112Z,29.97
2023-04-28T22:16:48.153Z,29.97
2023-04-28T22:18:53.149Z,30.19
2023-04-28T22:20:58.319Z,30.28
2023-04-28T22:23:03.330Z,30.2
2023-04-28T22:25:08.340Z,30.15
2023-04-28T22:27:13.374Z,30.11
2023-04-28T22:29:18.383Z,30.08
2023-04-28T22:31:23.654Z,30.17
2023-04-28T22:33:28.674Z,30.11
2023-04-28T22:35:33.625Z,30.21
2023-04-28T22:37:38.643Z,30.15
2023-04-28T22:39:43.616Z,30.08
2023-04-28T22:41:48.642Z,30.08
2023-04-28T22:43:53.589Z,30.3
2023-04-28T22:45:58.585Z,30.12
2023-04-28T22:48:05.018Z,30.15
2023-04-28T22:50:10.053Z,30.09
2023-04-28T22:52:15.079Z,30.11
2023-04-28T22:54:20.071Z,30.19
2023-04-28T22:56:25.090Z,30.13
2023-04-28T22:58:30.091Z,30.27
2023-04-28T23:00:35.117Z,30.1
2023-04-28T23:02:40.591Z,29.92
2023-04-28T23:04:46.039Z,29.93
2023-04-28T23:06:51.280Z,29.84
2023-04-28T23:08:56.245Z,29.69
2023-04-28T23:11:01.309Z,29.73
2023-04-28T23:13:06.308Z,29.85
2023-04-28T23:15:11.307Z,29.87
2023-04-28T23:17:16.391Z,29.83
2023-04-28T23:19:23.151Z,29.99
2023-04-28T23:21:28.131Z,29.85
2023-04-28T23:23:33.145Z,29.79
2023-04-28T23:25:38.209Z,29.82
2023-04-28T23:27:43.296Z,29.82
2023-04-28T23:29:48.344Z,29.84
2023-04-28T23:31:54.035Z,29.8
2023-04-28T23:33:59.022Z,30.15
2023-04-28T23:36:04.120Z,29.85
2023-04-28T23:38:09.109Z,29.83
2023-04-28T23:40:14.403Z,29.88
2023-04-28T23:42:19.429Z,29.85
2023-04-28T23:44:24.396Z,29.8
2023-04-28T23:46:29.409Z,29.88
2023-04-28T23:48:34.397Z,29.8
2023-04-28T23:50:39.377Z,29.79
2023-04-28T23:52:44.395Z,29.86
2023-04-28T23:54:49.432Z,29.84
2023-04-28T23:56:54.473Z,29.73
2023-04-28T23:58:59.468Z,29.8
